createdAt,value
2023-05-01T00:00:26.410Z,49.31
2023-05-01T00:01:26.425Z,47.37
2023-05-01T00:02:26.469Z,49.15
2023-05-01T00:03:26.559Z,52.21
2023-05-01T00:04:26.491Z,48.34
2023-05-01T00:05:26.382Z,48.18
2023-05-01T00:06:26.437Z,44.96
2023-05-01T00:07:26.353Z,43.18
2023-05-01T00:08:28.055Z,43.02
2023-05-01T00:09:26.394Z,45.44
2023-05-01T00:10:26.336Z,45.92
2023-05-01T00:11:26.332Z,40.93
2023-05-01T00:12:26.334Z,43.18
2023-05-01T00:13:27.039Z,49.95
2023-05-01T00:14:26.332Z,45.12
2023-05-01T00:15:26.300Z,45.60
2023-05-01T00:16:26.324Z,40.61
2023-05-01T00:17:26.460Z,40.77
2023-05-01T00:18:26.304Z,47.70
2023-05-01T00:19:26.293Z,43.51
2023-05-01T00:20:26.277Z,44.96
2023-05-01T00:23:26.224Z,41.73
2023-05-01T00:24:27.270Z,41.41
2023-05-01T00:25:27.255Z,41.25
2023-05-01T00:26:27.254Z,44.31
2023-05-01T00:27:27.256Z,45.92
2023-05-01T00:28:27.290Z,48.66
2023-05-01T00:29:27.233Z,44.31
2023-05-01T00:30:27.224Z,42.06
2023-05-01T00:31:27.223Z,39.80
2023-05-01T00:32:27.238Z,40.12
2023-05-01T00:33:27.203Z,40.61
2023-05-01T00:34:27.192Z,49.95
2023-05-01T00:35:27.206Z,47.86
2023-05-01T00:36:27.184Z,42.54
2023-05-01T00:37:27.184Z,39.16
2023-05-01T00:38:27.156Z,43.67
2023-05-01T00:39:27.169Z,40.44
2023-05-01T00:40:27.137Z,40.77
2023-05-01T00:41:27.144Z,41.25
2023-05-01T00:42:27.152Z,39.96
2023-05-01T00:43:27.137Z,39.80
2023-05-01T00:44:27.110Z,39.48
2023-05-01T00:45:28.108Z,40.44
2023-05-01T00:46:27.172Z,42.22
2023-05-01T00:47:27.134Z,40.44
2023-05-01T00:48:27.083Z,42.06
2023-05-01T00:49:27.093Z,43.67
2023-05-01T00:50:27.068Z,39.96
2023-05-01T00:51:27.078Z,40.12
2023-05-01T00:52:27.057Z,41.73
2023-05-01T00:53:27.046Z,47.70
2023-05-01T00:54:27.040Z,41.41
2023-05-01T00:55:27.027Z,43.51
2023-05-01T00:56:27.035Z,38.03
2023-05-01T00:57:27.039Z,38.35
2023-05-01T00:58:27.023Z,38.99
2023-05-01T00:59:27.016Z,41.73
2023-05-01T01:00:27.006Z,48.18
2023-05-01T01:01:27.030Z,45.28
2023-05-01T01:02:26.982Z,48.66
2023-05-01T01:03:26.971Z,39.80
2023-05-01T01:04:27.031Z,39.80
2023-05-01T01:05:27.653Z,41.89
2023-05-01T01:06:26.993Z,41.09
2023-05-01T01:07:26.949Z,42.22
2023-05-01T01:08:26.924Z,39.64
2023-05-01T01:09:26.917Z,39.64
2023-05-01T01:10:26.909Z,40.77
2023-05-01T01:11:26.919Z,41.09
2023-05-01T01:12:26.910Z,43.18
2023-05-01T01:13:26.905Z,44.47
2023-05-01T01:14:26.899Z,42.22
2023-05-01T01:15:26.875Z,41.09
2023-05-01T01:16:27.213Z,39.96
2023-05-01T01:17:26.866Z,38.35
2023-05-01T01:18:26.860Z,41.57
2023-05-01T01:19:26.860Z,42.06
2023-05-01T01:20:26.848Z,45.60
2023-05-01T01:21:26.822Z,49.31
2023-05-01T01:22:26.834Z,50.76
2023-05-01T01:23:26.807Z,47.21
2023-05-01T01:24:26.817Z,43.02
2023-05-01T01:25:26.806Z,41.41
2023-05-01T01:26:26.787Z,43.51
2023-05-01T01:27:26.808Z,42.86
2023-05-01T01:28:26.767Z,42.54
2023-05-01T01:29:26.802Z,45.60
2023-05-01T01:30:26.759Z,51.88
2023-05-01T01:31:26.809Z,42.70
2023-05-01T01:32:26.797Z,40.61
2023-05-01T01:33:26.730Z,40.44
2023-05-01T01:34:26.744Z,41.25
2023-05-01T01:35:26.709Z,46.08
2023-05-01T01:36:26.712Z,45.60
2023-05-01T01:37:26.705Z,44.31
2023-05-01T01:38:26.708Z,48.98
2023-05-01T01:39:26.691Z,47.53
2023-05-01T01:40:26.670Z,45.28
2023-05-01T01:41:26.680Z,43.83
2023-05-01T01:42:26.686Z,41.57
2023-05-01T01:43:26.670Z,47.05
2023-05-01T01:44:26.645Z,41.25
2023-05-01T01:45:26.654Z,41.41
2023-05-01T01:46:26.686Z,45.76
2023-05-01T01:47:26.674Z,44.96
2023-05-01T01:48:26.616Z,43.67
2023-05-01T01:49:26.627Z,48.18
2023-05-01T01:50:26.615Z,45.28
2023-05-01T01:51:26.599Z,43.99
2023-05-01T01:52:26.610Z,46.89
2023-05-01T01:53:26.578Z,43.02
2023-05-01T01:54:26.577Z,41.89
2023-05-01T01:55:27.156Z,46.41
2023-05-01T01:56:26.546Z,44.31
2023-05-01T01:57:26.554Z,45.44
2023-05-01T01:58:26.653Z,47.53
2023-05-01T01:59:26.544Z,42.22
2023-05-01T02:00:27.147Z,43.51
2023-05-01T02:01:26.540Z,42.06
2023-05-01T02:02:26.697Z,47.86
2023-05-01T02:03:26.722Z,47.86
2023-05-01T02:04:26.509Z,46.41
2023-05-01T02:05:26.489Z,47.21
2023-05-01T02:06:26.510Z,45.44
2023-05-01T02:07:26.458Z,41.89
2023-05-01T02:08:26.441Z,42.86
2023-05-01T02:09:26.450Z,39.48
2023-05-01T02:10:26.451Z,39.80
2023-05-01T02:11:26.432Z,39.96
2023-05-01T02:12:26.464Z,41.41
2023-05-01T02:13:26.410Z,43.67
2023-05-01T02:14:26.425Z,40.77
2023-05-01T02:15:26.414Z,41.57
2023-05-01T02:16:26.430Z,42.22
2023-05-01T02:17:26.429Z,40.28
2023-05-01T02:18:26.373Z,43.67
2023-05-01T02:19:26.380Z,44.63
2023-05-01T02:20:26.368Z,43.83
2023-05-01T02:21:26.380Z,40.12
2023-05-01T02:22:26.350Z,39.32
2023-05-01T02:23:26.338Z,41.73
2023-05-01T02:24:26.432Z,41.89
2023-05-01T02:25:27.907Z,41.73
2023-05-01T02:26:26.334Z,42.70
2023-05-01T02:27:26.347Z,41.41
2023-05-01T02:28:26.305Z,42.22
2023-05-01T02:29:26.288Z,41.41
2023-05-01T02:30:26.309Z,44.15
2023-05-01T02:31:26.302Z,39.48
2023-05-01T02:32:26.345Z,39.32
2023-05-01T02:33:26.259Z,40.28
2023-05-01T02:34:26.247Z,40.12
2023-05-01T02:35:26.275Z,40.61
2023-05-01T02:36:26.240Z,42.86
2023-05-01T02:37:26.248Z,44.96
2023-05-01T02:38:26.238Z,42.22
2023-05-01T02:39:26.248Z,42.54
2023-05-01T02:40:26.219Z,45.28
2023-05-01T02:41:28.190Z,40.77
2023-05-01T02:42:26.192Z,40.93
2023-05-01T02:43:26.184Z,41.57
2023-05-01T02:44:26.192Z,41.09
2023-05-01T02:45:26.231Z,41.73
2023-05-01T02:46:26.235Z,44.15
2023-05-01T02:47:26.242Z,43.18
2023-05-01T02:48:26.188Z,40.44
2023-05-01T02:49:26.162Z,43.99
2023-05-01T02:50:26.138Z,40.77
2023-05-01T02:51:26.128Z,39.64
2023-05-01T02:52:26.192Z,44.15
2023-05-01T02:53:26.701Z,43.99
2023-05-01T02:54:26.126Z,42.06
2023-05-01T02:55:26.104Z,40.77
2023-05-01T02:56:26.100Z,43.51
2023-05-01T02:57:26.096Z,41.25
2023-05-01T02:58:27.081Z,40.28
2023-05-01T02:59:26.671Z,43.18
2023-05-01T03:00:26.088Z,45.12
2023-05-01T03:01:26.153Z,40.93
2023-05-01T03:02:26.045Z,42.06
2023-05-01T03:03:26.059Z,41.09
2023-05-01T03:04:26.057Z,43.51
2023-05-01T03:05:26.044Z,42.70
2023-05-01T03:06:26.042Z,43.02
2023-05-01T03:07:26.026Z,42.70
2023-05-01T03:08:26.010Z,42.38
2023-05-01T03:09:25.989Z,42.86
2023-05-01T03:10:25.992Z,42.54
2023-05-01T03:11:25.973Z,41.73
2023-05-01T03:12:25.974Z,40.61
2023-05-01T03:13:25.988Z,41.41
2023-05-01T03:14:25.964Z,43.99
2023-05-01T03:15:25.957Z,41.41
2023-05-01T03:16:25.996Z,42.06
2023-05-01T03:17:25.953Z,41.41
2023-05-01T03:18:25.934Z,43.51
2023-05-01T03:19:25.913Z,43.99
2023-05-01T03:20:26.571Z,42.70
2023-05-01T03:21:25.921Z,49.15
2023-05-01T03:22:25.888Z,46.89
2023-05-01T03:23:25.885Z,45.12
2023-05-01T03:24:25.886Z,44.15
2023-05-01T03:25:25.864Z,47.05
2023-05-01T03:26:25.868Z,50.27
2023-05-01T03:27:25.840Z,45.12
2023-05-01T03:28:25.915Z,43.51
2023-05-01T03:29:25.860Z,43.18
2023-05-01T03:30:25.841Z,43.83
2023-05-01T03:31:25.876Z,47.21
2023-05-01T03:32:26.061Z,43.02
2023-05-01T03:33:25.824Z,47.05
2023-05-01T03:34:25.798Z,41.25
2023-05-01T03:35:25.875Z,44.47
2023-05-01T03:36:25.777Z,47.70
2023-05-01T03:37:25.796Z,53.82
2023-05-01T03:38:25.756Z,43.99
2023-05-01T03:39:25.755Z,43.18
2023-05-01T03:40:26.752Z,44.15
2023-05-01T03:41:25.735Z,47.05
2023-05-01T03:42:25.739Z,44.96
2023-05-01T03:43:25.844Z,45.12
2023-05-01T03:44:25.726Z,40.44
2023-05-01T03:45:25.701Z,40.61
2023-05-01T03:46:25.707Z,43.83
2023-05-01T03:47:26.759Z,43.02
2023-05-01T03:48:25.724Z,44.96
2023-05-01T03:49:25.676Z,40.61
2023-05-01T03:50:25.679Z,40.61
2023-05-01T03:51:25.712Z,43.99
2023-05-01T03:52:25.702Z,44.47
2023-05-01T03:53:25.646Z,43.02
2023-05-01T03:54:25.658Z,43.18
2023-05-01T03:55:25.645Z,41.57
2023-05-01T03:56:25.728Z,48.98
2023-05-01T03:57:25.617Z,42.54
2023-05-01T03:58:25.603Z,42.54
2023-05-01T03:59:25.605Z,43.18
2023-05-01T04:00:25.592Z,42.22
2023-05-01T04:01:25.610Z,41.41
2023-05-01T04:02:25.719Z,41.25
2023-05-01T04:03:25.631Z,43.34
2023-05-01T04:04:26.228Z,43.51
2023-05-01T04:05:26.553Z,44.47
2023-05-01T04:06:25.577Z,44.15
2023-05-01T04:07:25.537Z,43.83
2023-05-01T04:08:25.533Z,49.47
2023-05-01T04:09:25.527Z,50.92
2023-05-01T04:10:25.513Z,44.47
2023-05-01T04:11:25.520Z,46.57
2023-05-01T04:12:25.499Z,43.51
2023-05-01T04:13:25.708Z,44.31
2023-05-01T04:14:26.519Z,47.70
2023-05-01T04:15:25.493Z,44.47
2023-05-01T04:16:25.529Z,41.25
2023-05-01T04:17:25.466Z,41.57
2023-05-01T04:18:25.458Z,44.96
2023-05-01T04:19:25.479Z,43.83
2023-05-01T04:20:25.446Z,45.12
2023-05-01T04:21:26.205Z,43.34
2023-05-01T04:22:25.477Z,45.28
2023-05-01T04:23:25.426Z,46.73
2023-05-01T04:24:25.444Z,48.66
2023-05-01T04:25:25.400Z,47.53
2023-05-01T04:26:28.224Z,47.21
2023-05-01T04:27:25.382Z,43.34
2023-05-01T04:28:25.424Z,43.34
2023-05-01T04:29:25.373Z,48.98
2023-05-01T04:30:25.366Z,43.51
2023-05-01T04:31:25.396Z,42.22
2023-05-01T04:32:25.354Z,43.34
2023-05-01T04:33:25.347Z,41.73
2023-05-01T04:34:25.325Z,41.25
2023-05-01T04:35:25.345Z,43.99
2023-05-01T04:36:27.182Z,45.92
2023-05-01T04:37:25.320Z,43.34
2023-05-01T04:38:25.304Z,49.15
2023-05-01T04:39:25.275Z,45.92
2023-05-01T04:40:26.112Z,45.92
2023-05-01T04:41:25.278Z,50.60
2023-05-01T04:42:25.271Z,45.76
2023-05-01T04:43:25.248Z,44.47
2023-05-01T04:44:25.289Z,42.06
2023-05-01T04:45:25.247Z,46.08
2023-05-01T04:46:25.229Z,45.28
2023-05-01T04:47:25.221Z,47.53
2023-05-01T04:48:25.216Z,49.63
2023-05-01T04:49:27.091Z,45.76
2023-05-01T04:50:25.219Z,42.54
2023-05-01T04:51:25.202Z,43.18
2023-05-01T04:52:25.187Z,42.06
2023-05-01T04:53:25.205Z,43.18
2023-05-01T04:54:26.182Z,41.89
2023-05-01T04:55:26.193Z,46.89
2023-05-01T04:56:25.162Z,51.08
2023-05-01T04:57:25.163Z,42.54
2023-05-01T04:58:25.137Z,41.57
2023-05-01T04:59:25.141Z,41.25
2023-05-01T05:00:25.133Z,47.70
2023-05-01T05:01:25.188Z,45.44
2023-05-01T05:02:25.161Z,49.15
2023-05-01T05:03:25.186Z,48.82
2023-05-01T05:04:25.161Z,48.02
2023-05-01T05:05:25.143Z,46.57
2023-05-01T05:06:25.170Z,46.73
2023-05-01T05:07:25.069Z,50.11
2023-05-01T05:08:25.053Z,47.37
2023-05-01T05:09:25.086Z,46.41
2023-05-01T05:10:25.063Z,49.15
2023-05-01T05:11:25.063Z,42.38
2023-05-01T05:12:25.061Z,44.79
2023-05-01T05:13:25.042Z,49.47
2023-05-01T05:14:25.693Z,42.54
2023-05-01T05:15:25.020Z,41.57
2023-05-01T05:16:25.037Z,46.89
2023-05-01T05:17:25.011Z,41.57
2023-05-01T05:18:25.032Z,49.95
2023-05-01T05:19:24.978Z,42.70
2023-05-01T05:20:24.982Z,41.25
2023-05-01T05:21:24.979Z,45.60
2023-05-01T05:22:24.968Z,49.47
2023-05-01T05:23:24.951Z,47.21
2023-05-01T05:24:24.951Z,52.21
2023-05-01T05:25:24.987Z,41.73
2023-05-01T05:26:24.947Z,45.12
2023-05-01T05:27:24.988Z,44.31
2023-05-01T05:28:24.905Z,43.51
2023-05-01T05:29:26.617Z,45.28
2023-05-01T05:30:24.894Z,43.18
2023-05-01T05:31:24.967Z,44.63
2023-05-01T05:32:24.967Z,43.99
2023-05-01T05:33:24.887Z,43.83
2023-05-01T05:34:25.741Z,49.15
2023-05-01T05:35:24.863Z,46.89
2023-05-01T05:36:24.848Z,45.60
2023-05-01T05:37:24.831Z,43.51
2023-05-01T05:38:24.862Z,47.86
2023-05-01T05:39:24.869Z,51.40
2023-05-01T05:40:24.827Z,42.86
2023-05-01T05:41:24.805Z,53.33
2023-05-01T05:42:24.850Z,47.86
2023-05-01T05:43:27.329Z,41.57
2023-05-01T05:44:25.772Z,42.70
2023-05-01T05:45:24.793Z,45.28
2023-05-01T05:46:24.817Z,45.92
2023-05-01T05:47:24.824Z,48.66
2023-05-01T05:48:24.804Z,46.89
2023-05-01T05:49:24.752Z,41.41
2023-05-01T05:50:25.632Z,47.86
2023-05-01T05:51:26.697Z,46.89
2023-05-01T05:52:24.736Z,45.92
2023-05-01T05:53:25.999Z,48.02
2023-05-01T05:56:32.401Z,45.28
2023-05-01T05:57:33.507Z,48.18
2023-05-01T05:58:33.464Z,48.18
2023-05-01T05:59:33.471Z,47.05
2023-05-01T06:00:33.458Z,41.57
2023-05-01T06:01:35.166Z,39.80
2023-05-01T06:02:33.575Z,43.02
2023-05-01T06:03:33.750Z,44.96
2023-05-01T06:04:33.426Z,41.41
2023-05-01T06:05:33.454Z,47.05
2023-05-01T06:06:33.449Z,44.15
2023-05-01T06:07:33.428Z,42.86
2023-05-01T06:08:33.387Z,41.41
2023-05-01T06:11:44.337Z,54.95
2023-05-01T06:12:45.545Z,51.40
2023-05-01T06:13:44.543Z,43.99
2023-05-01T06:14:43.539Z,53.33
2023-05-01T06:15:43.575Z,49.63
2023-05-01T06:16:44.074Z,46.25
2023-05-01T06:17:43.570Z,44.96
2023-05-01T06:18:45.674Z,47.86
2023-05-01T06:19:45.406Z,48.18
2023-05-01T06:20:43.492Z,42.06
2023-05-01T06:21:44.732Z,44.15
2023-05-01T06:22:43.483Z,48.02
2023-05-01T06:23:43.481Z,54.95
2023-05-01T06:25:16.380Z,46.57
2023-05-01T06:25:43.452Z,51.56
2023-05-01T06:26:43.457Z,42.70
2023-05-01T06:27:43.473Z,49.63
2023-05-01T06:28:43.433Z,44.79
2023-05-01T06:29:43.417Z,51.40
2023-05-01T06:30:43.426Z,53.17
2023-05-01T06:31:43.414Z,49.63
2023-05-01T06:32:43.443Z,49.47
2023-05-01T06:33:43.412Z,41.09
2023-05-01T06:34:43.377Z,43.83
2023-05-01T06:35:43.410Z,47.21
2023-05-01T06:36:43.363Z,51.72
2023-05-01T06:37:44.374Z,45.12
2023-05-01T06:38:43.344Z,53.01
2023-05-01T06:39:43.368Z,45.44
2023-05-01T06:40:43.337Z,45.60
2023-05-01T06:41:43.335Z,47.21
2023-05-01T06:42:43.317Z,49.47
2023-05-01T06:43:43.305Z,54.14
2023-05-01T06:44:43.299Z,45.76
2023-05-01T06:45:44.870Z,45.28
2023-05-01T06:46:43.306Z,49.47
2023-05-01T06:47:43.339Z,48.02
2023-05-01T06:48:43.276Z,45.60
2023-05-01T06:49:43.258Z,50.43
2023-05-01T06:50:43.306Z,49.79
2023-05-01T06:51:43.257Z,47.05
2023-05-01T06:52:44.953Z,49.95
2023-05-01T06:53:43.249Z,43.67
2023-05-01T06:54:43.238Z,53.66
2023-05-01T06:55:43.220Z,46.08
2023-05-01T06:56:43.204Z,49.79
2023-05-01T06:57:43.212Z,44.15
2023-05-01T06:58:43.188Z,49.79
2023-05-01T06:59:43.193Z,47.53
2023-05-01T07:00:43.185Z,46.73
2023-05-01T07:01:43.255Z,42.06
2023-05-01T07:02:43.290Z,41.09
2023-05-01T07:03:43.225Z,51.72
2023-05-01T07:04:43.976Z,52.37
2023-05-01T07:05:43.127Z,47.21
2023-05-01T07:06:43.144Z,53.33
2023-05-01T07:07:54.135Z,47.53
2023-05-01T07:08:44.135Z,46.89
2023-05-01T07:09:43.113Z,42.38
2023-05-01T07:10:43.109Z,50.11
2023-05-01T07:11:44.982Z,49.47
2023-05-01T07:12:43.091Z,50.11
2023-05-01T07:13:43.065Z,44.63
2023-05-01T07:14:43.071Z,48.02
2023-05-01T07:15:43.054Z,49.63
2023-05-01T07:16:43.105Z,44.96
2023-05-01T07:17:43.057Z,53.66
2023-05-01T07:18:43.032Z,54.30
2023-05-01T07:19:43.029Z,46.25
2023-05-01T07:20:43.033Z,48.50
2023-05-01T07:21:44.885Z,54.95
2023-05-01T07:22:43.009Z,57.52
2023-05-01T07:23:42.998Z,52.69
2023-05-01T07:24:45.908Z,50.76
2023-05-01T07:25:42.990Z,55.43
2023-05-01T07:26:42.969Z,48.34
2023-05-01T07:27:42.968Z,50.92
2023-05-01T07:28:42.953Z,50.27
2023-05-01T07:29:42.955Z,51.40
2023-05-01T07:30:42.937Z,53.98
2023-05-01T07:31:43.578Z,46.73
2023-05-01T07:32:42.958Z,49.79
2023-05-01T07:33:42.937Z,53.17
2023-05-01T07:34:42.915Z,50.92
2023-05-01T07:35:42.892Z,47.86
2023-05-01T07:36:42.900Z,44.15
2023-05-01T07:37:42.907Z,52.53
2023-05-01T07:38:42.892Z,52.85
2023-05-01T07:39:42.888Z,54.46
2023-05-01T07:40:42.876Z,54.30
2023-05-01T07:41:42.848Z,52.05
2023-05-01T07:42:42.835Z,52.85
2023-05-01T07:43:44.391Z,51.88
2023-05-01T07:44:42.853Z,42.38
2023-05-01T07:45:43.145Z,56.24
2023-05-01T07:46:42.815Z,54.30
2023-05-01T07:47:42.873Z,52.69
2023-05-01T07:48:42.813Z,56.56
2023-05-01T07:49:43.415Z,52.37
2023-05-01T07:50:42.785Z,52.05
2023-05-01T07:51:42.783Z,55.27
2023-05-01T07:52:42.815Z,52.85
2023-05-01T07:53:42.753Z,48.82
2023-05-01T07:54:42.760Z,51.88
2023-05-01T07:55:42.751Z,50.27
2023-05-01T07:56:42.734Z,44.96
2023-05-01T07:57:42.723Z,49.79
2023-05-01T07:58:42.726Z,47.53
2023-05-01T07:59:42.715Z,51.08
2023-05-01T08:00:42.720Z,52.37
2023-05-01T08:01:42.709Z,51.40
2023-05-01T08:02:42.792Z,50.27
2023-05-01T08:03:42.779Z,51.56
2023-05-01T08:04:42.684Z,54.14
2023-05-01T08:05:42.687Z,46.57
2023-05-01T08:06:42.694Z,54.30
2023-05-01T08:07:42.636Z,53.66
2023-05-01T08:08:42.678Z,42.86
2023-05-01T08:09:42.669Z,53.82
2023-05-01T08:10:42.619Z,49.15
2023-05-01T08:11:42.607Z,53.66
2023-05-01T08:12:42.624Z,55.11
2023-05-01T08:13:42.604Z,52.53
2023-05-01T08:14:42.605Z,54.95
2023-05-01T08:15:42.643Z,54.79
2023-05-01T08:16:42.633Z,57.69
2023-05-01T08:17:42.612Z,53.33
2023-05-01T08:18:42.627Z,54.95
2023-05-01T08:19:42.562Z,51.40
2023-05-01T08:20:42.558Z,50.43
2023-05-01T08:21:42.551Z,57.36
2023-05-01T08:22:43.548Z,57.85
2023-05-01T08:23:42.522Z,57.52
2023-05-01T08:24:42.510Z,56.72
2023-05-01T08:25:42.521Z,57.36
2023-05-01T08:26:42.516Z,53.50
2023-05-01T08:27:42.502Z,55.43
2023-05-01T08:28:42.496Z,49.47
2023-05-01T08:29:42.471Z,50.43
2023-05-01T08:30:43.479Z,53.98
2023-05-01T08:31:42.519Z,53.66
2023-05-01T08:32:42.512Z,49.47
2023-05-01T08:33:42.450Z,49.79
2023-05-01T08:34:42.464Z,49.79
2023-05-01T08:35:43.997Z,51.88
2023-05-01T08:36:42.485Z,57.36
2023-05-01T08:37:42.414Z,53.17
2023-05-01T08:38:42.417Z,52.05
2023-05-01T08:39:42.403Z,55.75
2023-05-01T08:40:42.388Z,54.95
2023-05-01T08:41:42.954Z,52.85
2023-05-01T08:42:42.423Z,53.01
2023-05-01T08:43:42.387Z,56.24
2023-05-01T08:44:42.377Z,47.86
2023-05-01T08:45:42.375Z,47.21
2023-05-01T08:46:42.411Z,52.53
2023-05-01T08:47:42.410Z,54.95
2023-05-01T08:48:42.335Z,56.40
2023-05-01T08:49:42.327Z,56.72
2023-05-01T08:50:42.324Z,57.36
2023-05-01T08:51:42.334Z,57.52
2023-05-01T08:52:44.008Z,53.17
2023-05-01T08:53:43.302Z,52.53
2023-05-01T08:54:42.293Z,56.72
2023-05-01T08:55:42.293Z,52.37
2023-05-01T08:56:42.289Z,48.98
2023-05-01T08:57:42.266Z,57.85
2023-05-01T08:58:42.293Z,48.98
2023-05-01T08:59:42.249Z,56.56
2023-05-01T09:00:42.306Z,49.95
2023-05-01T09:01:42.273Z,53.82
2023-05-01T09:02:42.259Z,47.21
2023-05-01T09:03:42.261Z,57.04
2023-05-01T09:04:42.229Z,59.46
2023-05-01T09:05:42.209Z,59.78
2023-05-01T09:06:42.268Z,52.53
2023-05-01T09:07:43.030Z,49.31
2023-05-01T09:08:42.173Z,51.56
2023-05-01T09:09:42.174Z,55.11
2023-05-01T09:10:42.173Z,47.05
2023-05-01T09:11:42.147Z,57.52
2023-05-01T09:12:42.172Z,51.08
2023-05-01T09:13:43.014Z,49.79
2023-05-01T09:14:42.164Z,54.30
2023-05-01T09:15:42.125Z,53.50
2023-05-01T09:16:43.043Z,56.88
2023-05-01T09:17:42.170Z,49.47
2023-05-01T09:18:42.118Z,56.56
2023-05-01T09:19:42.101Z,56.40
2023-05-01T09:20:42.103Z,55.43
2023-05-01T09:21:42.080Z,48.18
2023-05-01T09:22:42.088Z,54.14
2023-05-01T09:23:42.081Z,56.24
2023-05-01T09:24:42.052Z,53.17
2023-05-01T09:25:42.061Z,53.82
2023-05-01T09:26:42.069Z,50.92
2023-05-01T09:27:42.053Z,56.07
2023-05-01T09:28:44.011Z,49.15
2023-05-01T09:29:42.023Z,54.79
2023-05-01T09:30:42.022Z,59.62
2023-05-01T09:31:42.068Z,53.82
2023-05-01T09:32:42.669Z,56.88
2023-05-01T09:33:42.976Z,55.27
2023-05-01T09:34:41.994Z,51.08
2023-05-01T09:35:41.996Z,52.69
2023-05-01T09:36:41.979Z,54.46
2023-05-01T09:37:41.960Z,53.33
2023-05-01T09:38:42.059Z,51.40
2023-05-01T09:39:41.947Z,53.01
2023-05-01T09:40:41.929Z,58.65
2023-05-01T09:41:41.930Z,54.30
2023-05-01T09:42:41.942Z,56.40
2023-05-01T09:43:41.950Z,50.60
2023-05-01T09:44:41.924Z,47.53
2023-05-01T09:45:41.918Z,56.40
2023-05-01T09:46:41.932Z,55.43
2023-05-01T09:47:41.898Z,49.47
2023-05-01T09:48:41.882Z,56.24
2023-05-01T09:49:41.884Z,55.27
2023-05-01T09:50:41.863Z,52.21
2023-05-01T09:51:41.837Z,59.14
2023-05-01T09:52:41.850Z,54.14
2023-05-01T09:53:41.850Z,55.75
2023-05-01T09:54:41.853Z,57.04
2023-05-01T09:55:41.815Z,55.11
2023-05-01T09:56:41.821Z,55.59
2023-05-01T09:57:41.803Z,51.24
2023-05-01T09:58:41.835Z,51.88
2023-05-01T09:59:41.806Z,52.37
2023-05-01T10:00:41.777Z,56.24
2023-05-01T10:01:41.936Z,54.46
2023-05-01T10:02:42.664Z,52.53
2023-05-01T10:03:41.904Z,58.17
2023-05-01T10:04:41.747Z,55.27
2023-05-01T10:05:41.750Z,55.11
2023-05-01T10:06:41.801Z,58.33
2023-05-01T10:07:41.713Z,55.91
2023-05-01T10:08:41.726Z,54.46
2023-05-01T10:09:41.716Z,50.60
2023-05-01T10:10:41.808Z,53.98
2023-05-01T10:11:41.697Z,55.59
2023-05-01T10:12:43.535Z,58.01
2023-05-01T10:13:41.698Z,51.24
2023-05-01T10:14:41.660Z,52.05
2023-05-01T10:15:41.690Z,56.56
2023-05-01T10:16:41.721Z,53.33
2023-05-01T10:17:41.693Z,53.98
2023-05-01T10:18:41.718Z,57.20
2023-05-01T10:19:41.635Z,54.79
2023-05-01T10:20:41.641Z,57.52
2023-05-01T10:21:41.635Z,58.65
2023-05-01T10:22:41.601Z,56.07
2023-05-01T10:23:41.622Z,48.82
2023-05-01T10:24:41.625Z,53.33
2023-05-01T10:25:41.608Z,54.46
2023-05-01T10:26:41.640Z,54.30
2023-05-01T10:27:41.591Z,56.56
2023-05-01T10:28:41.571Z,54.79
2023-05-01T10:29:42.505Z,57.20
2023-05-01T10:30:41.556Z,57.85
2023-05-01T10:31:42.658Z,57.69
2023-05-01T10:32:42.588Z,54.62
2023-05-01T10:33:41.656Z,55.59
2023-05-01T10:34:41.567Z,56.88
2023-05-01T10:35:41.521Z,51.24
2023-05-01T10:36:41.535Z,54.46
2023-05-01T10:37:41.504Z,56.24
2023-05-01T10:38:41.506Z,52.85
2023-05-01T10:39:41.482Z,52.53
2023-05-01T10:40:41.488Z,53.17
2023-05-01T10:41:41.467Z,51.24
2023-05-01T10:42:41.549Z,47.70
2023-05-01T10:43:41.459Z,51.40
2023-05-01T10:44:41.448Z,54.30
2023-05-01T10:45:41.455Z,52.53
2023-05-01T10:46:41.460Z,50.11
2023-05-01T10:47:41.545Z,55.91
2023-05-01T10:48:41.421Z,57.69
2023-05-01T10:49:41.401Z,54.30
2023-05-01T10:50:42.073Z,50.43
2023-05-01T10:51:41.376Z,53.50
2023-05-01T10:52:41.480Z,55.75
2023-05-01T10:53:41.367Z,56.40
2023-05-01T10:54:41.371Z,59.30
2023-05-01T10:55:41.356Z,54.46
2023-05-01T10:56:41.359Z,54.14
2023-05-01T10:57:41.335Z,55.59
2023-05-01T10:58:42.059Z,51.72
2023-05-01T10:59:41.336Z,56.72
2023-05-01T11:00:41.974Z,56.72
2023-05-01T11:01:41.389Z,54.46
2023-05-01T11:02:41.361Z,56.07
2023-05-01T11:03:41.323Z,57.04
2023-05-01T11:04:41.301Z,58.33
2023-05-01T11:05:41.307Z,59.14
2023-05-01T11:06:41.339Z,58.97
2023-05-01T11:07:41.274Z,57.52
2023-05-01T11:08:44.073Z,48.66
2023-05-01T11:09:41.465Z,56.07
2023-05-01T11:10:41.252Z,49.47
2023-05-01T11:11:41.225Z,53.17
2023-05-01T11:12:42.982Z,54.62
2023-05-01T11:13:41.214Z,53.50
2023-05-01T11:14:41.213Z,47.21
2023-05-01T11:15:42.113Z,53.66
2023-05-01T11:16:41.260Z,50.60
2023-05-01T11:17:41.321Z,53.50
2023-05-01T11:18:41.182Z,54.46
2023-05-01T11:19:41.207Z,56.07
2023-05-01T11:20:41.158Z,49.79
2023-05-01T11:21:41.198Z,56.72
2023-05-01T11:22:41.147Z,53.01
2023-05-01T11:23:41.135Z,53.50
2023-05-01T11:24:41.131Z,58.81
2023-05-01T11:25:41.123Z,55.59
2023-05-01T11:26:41.129Z,47.21
2023-05-01T11:27:41.102Z,53.98
2023-05-01T11:28:41.105Z,54.46
2023-05-01T11:29:42.090Z,52.85
2023-05-01T11:30:41.098Z,54.14
2023-05-01T11:31:41.160Z,55.91
2023-05-01T11:32:41.106Z,53.50
2023-05-01T11:33:41.066Z,57.04
2023-05-01T11:34:41.047Z,56.56
2023-05-01T11:35:41.050Z,50.92
2023-05-01T11:36:41.039Z,56.07
2023-05-01T11:37:41.068Z,54.30
2023-05-01T11:38:41.049Z,52.21
2023-05-01T11:39:41.016Z,57.20
2023-05-01T11:40:40.996Z,55.11
2023-05-01T11:41:41.080Z,48.34
2023-05-01T11:42:41.011Z,58.65
2023-05-01T11:45:47.862Z,55.43
2023-05-01T11:46:47.819Z,55.75
2023-05-01T11:47:47.843Z,50.76
2023-05-01T11:48:47.801Z,56.88
2023-05-01T11:49:47.800Z,54.95
2023-05-01T11:50:47.802Z,52.53
2023-05-01T11:51:49.689Z,51.88
2023-05-01T11:52:47.797Z,48.66
2023-05-01T11:53:47.770Z,54.14
2023-05-01T11:54:47.759Z,55.59
2023-05-01T11:55:47.747Z,53.33
2023-05-01T11:56:47.764Z,57.69
2023-05-01T11:57:47.752Z,52.05
2023-05-01T11:58:47.740Z,48.18
2023-05-01T11:59:48.833Z,55.91
2023-05-01T12:00:48.843Z,54.30
2023-05-01T12:01:48.829Z,54.46
2023-05-01T12:02:48.841Z,55.59
2023-05-01T12:03:48.856Z,56.56
2023-05-01T12:04:50.369Z,58.49
2023-05-01T12:05:48.840Z,56.07
2023-05-01T12:06:48.799Z,54.14
2023-05-01T12:07:48.741Z,55.11
2023-05-01T12:08:48.754Z,52.05
2023-05-01T12:09:48.738Z,57.85
2023-05-01T12:10:49.356Z,56.72
2023-05-01T12:11:50.526Z,51.40
2023-05-01T12:12:48.713Z,49.95
2023-05-01T12:13:48.709Z,52.53
2023-05-01T12:14:48.693Z,51.56
2023-05-01T12:15:48.692Z,55.27
2023-05-01T12:16:48.807Z,58.97
2023-05-01T12:17:49.359Z,59.78
2023-05-01T12:18:48.672Z,57.52
2023-05-01T12:19:48.653Z,56.40
2023-05-01T12:20:48.681Z,49.47
2023-05-01T12:21:48.665Z,58.97
2023-05-01T12:22:48.636Z,56.88
2023-05-01T12:23:48.634Z,54.79
2023-05-01T12:24:48.611Z,60.26
2023-05-01T12:25:48.608Z,56.88
2023-05-01T12:26:48.606Z,51.08
2023-05-01T12:27:48.606Z,54.79
2023-05-01T12:28:48.592Z,53.17
2023-05-01T12:29:48.565Z,54.30
2023-05-01T12:30:48.579Z,58.97
2023-05-01T12:31:48.680Z,56.72
2023-05-01T12:32:48.580Z,58.33
2023-05-01T12:33:48.565Z,53.98
2023-05-01T12:34:50.321Z,53.01
2023-05-01T12:35:48.533Z,55.91
2023-05-01T12:36:48.523Z,59.14
2023-05-01T12:37:48.514Z,53.66
2023-05-01T12:38:48.495Z,50.92
2023-05-01T12:39:50.413Z,57.36
2023-05-01T12:40:48.485Z,55.59
2023-05-01T12:41:48.495Z,56.40
2023-05-01T12:42:48.471Z,55.59
2023-05-01T12:43:48.458Z,57.20
2023-05-01T12:44:48.476Z,51.24
2023-05-01T12:45:51.310Z,57.36
2023-05-01T12:46:48.499Z,57.04
2023-05-01T12:47:48.459Z,50.43
2023-05-01T12:48:48.423Z,57.85
2023-05-01T12:49:48.408Z,56.24
2023-05-01T12:50:49.816Z,57.36
2023-05-01T12:51:48.404Z,55.59
2023-05-01T12:52:48.382Z,55.91
2023-05-01T12:53:48.383Z,54.46
2023-05-01T12:54:48.365Z,57.85
2023-05-01T12:55:48.386Z,57.52
2023-05-01T12:56:48.379Z,55.91
2023-05-01T12:57:48.340Z,52.05
2023-05-01T12:58:48.334Z,51.72
2023-05-01T12:59:48.321Z,53.82
2023-05-01T13:00:48.328Z,56.24